Aérodrome :







RETROUVEZ-NOUS SUR...

 
LOGIN :

S'inscrire | Disclaimer

   EN    FR    IT 

 









Légende :    VFR   VFR Marginal   IFR   IFR Intensif   IFR Très Intensif
Visi : 
Plafond : 
>= 8 km
>= 3000ft
5 à 8 km
1000 à 3000 ft
1500m à 5 km
500 à 1000 ft
800 à 1500m
200 à 500 ft
< 800m
< 200 ft
Symboles :   Orages  Brouillard  Fortes neiges  Fortes précipitations  Vent > 20 kt






- Altitude de l'aérodrome : 193 ft
- Code IATA : ZBF


CZBF - Bathurst

DERNIER METAR :
  • 172200Z AUTO 30012G20KT 250V320 9SM CLR M18/M25 A3031 RMK SLP273

METARs EXPIRÉS :
  • 172100Z AUTO 30009G19KT 260V340 9SM CLR M18/M24 A3029 RMK SLP264
  • 172000Z AUTO 31013G24KT 280V340 9SM CLR M17/M24 A3026 RMK SLP255
  • 171941Z AUTO 30009G26KT 270V350 9SM CLR M16/M23 A3025 RMK SLP252
  • 171922Z AUTO 31010G25KT 270V340 9SM -SN CLR M16/M24 A3025 RMK SLP250

TAF AMD TAF CZBF
Valide du 17 à 20h jusqu'au 18 à 04h UTC


171945Z 1720/1804 31012G25KT P6SM SKC
TEMPO 1720/1804 5SM BLSN RMK FCST BASED ON AUTO OBS. AUTO OBS NON-REPRESENTATIVE OF CRNT WX. NXT FCST BY 180200Z



MET'MAP, la Météo Aéronautique d'un coup d'oeil ! - Copyright ORBIFLY Décembre 2007 - Disclaimer

ORBIFLY MET'MAP TEAM :

Programmation & Développement : Alexandra Zaïnal
Sur une idée originale de : Baudouin d'Aumeries
Assistance à la programmation : Marc-Olivier Méhu
Soutien technique & logistique : Manuel Goepfert

Contact : metmap@orbifly.com




SOURCES & CREDITS :

   NOAA